createdAt,value
2022-10-11T00:00:13.111Z,8.90
2022-10-11T00:02:41.897Z,10.43
2022-10-11T00:05:11.399Z,8.83
2022-10-11T00:07:41.740Z,8.27
2022-10-11T00:10:11.900Z,10.80
2022-10-11T00:12:41.069Z,9.63
2022-10-11T00:15:13.163Z,8.33
2022-10-11T00:17:42.221Z,11.17
2022-10-11T00:20:11.732Z,11.13
2022-10-11T00:22:43.652Z,11.20
2022-10-11T00:25:13.614Z,9.57
2022-10-11T00:27:43.503Z,10.90
2022-10-11T00:30:14.452Z,13.67
2022-10-11T00:32:43.527Z,10.07
2022-10-11T00:35:17.461Z,8.77
2022-10-11T00:37:47.803Z,7.17
2022-10-11T00:40:21.460Z,9.07
2022-10-11T00:42:50.293Z,10.77
2022-10-11T00:46:00.502Z,10.87
2022-10-11T00:48:35.216Z,11.30
2022-10-11T00:51:09.240Z,11.10
2022-10-11T00:53:40.133Z,9.77
2022-10-11T00:56:23.412Z,8.17
2022-10-11T00:58:55.595Z,15.10
2022-10-11T01:01:24.786Z,8.73
2022-10-11T01:03:54.161Z,12.03
2022-10-11T01:06:22.773Z,7.27
2022-10-11T01:08:55.885Z,9.47
2022-10-11T01:11:27.183Z,9.40
2022-10-11T01:14:15.379Z,9.17
2022-10-11T01:16:53.332Z,10.50
2022-10-11T01:19:40.112Z,11.20
2022-10-11T01:22:24.018Z,12.73
2022-10-11T01:25:14.705Z,9.70
2022-10-11T01:27:56.862Z,17.10
2022-10-11T01:30:29.533Z,13.47
2022-10-11T01:33:16.747Z,9.10
2022-10-11T01:35:50.617Z,9.60
2022-10-11T01:38:26.292Z,11.53
2022-10-11T01:40:58.329Z,15.93
2022-10-11T01:43:29.716Z,9.63
2022-10-11T01:46:03.915Z,11.93
2022-10-11T01:48:32.820Z,9.53
2022-10-11T01:51:04.908Z,10.10
2022-10-11T01:53:57.359Z,12.93
2022-10-11T01:56:48.009Z,13.70
2022-10-11T01:59:30.793Z,11.73
2022-10-11T02:02:10.865Z,9.33
2022-10-11T02:04:46.935Z,9.60
2022-10-11T02:07:24.275Z,10.57
2022-10-11T02:09:59.121Z,12.23
2022-10-11T02:12:33.735Z,7.30
2022-10-11T02:15:04.726Z,10.60
2022-10-11T02:17:40.789Z,11.07
2022-10-11T02:20:15.586Z,11.70
2022-10-11T02:22:47.683Z,9.60
2022-10-11T02:25:21.493Z,12.40
2022-10-11T02:27:51.781Z,8.03
2022-10-11T02:30:20.397Z,7.63
2022-10-11T02:32:52.801Z,9.90
2022-10-11T02:35:24.047Z,15.43
2022-10-11T02:37:59.340Z,10.33
2022-10-11T02:40:33.472Z,10.63
2022-10-11T02:43:06.872Z,12.40
2022-10-11T02:45:39.029Z,8.80
2022-10-11T02:48:12.162Z,10.77
2022-10-11T02:50:42.201Z,9.37
2022-10-11T02:53:10.840Z,11.60
2022-10-11T02:55:39.684Z,9.27
2022-10-11T02:58:08.214Z,7.03
2022-10-11T03:00:37.115Z,8.60
2022-10-11T03:03:05.669Z,10.93
2022-10-11T03:05:40.635Z,8.20
2022-10-11T03:08:10.154Z,12.27
2022-10-11T03:10:39.916Z,10.97
2022-10-11T03:13:09.062Z,8.97
2022-10-11T03:15:37.618Z,7.13
2022-10-11T03:18:06.208Z,9.87
2022-10-11T03:20:36.243Z,10.17
2022-10-11T03:23:04.903Z,9.60
2022-10-11T03:25:33.564Z,7.50
2022-10-11T03:28:02.177Z,7.73
2022-10-11T03:30:33.388Z,10.07
2022-10-11T03:33:01.904Z,7.70
2022-10-11T03:35:30.447Z,10.30
2022-10-11T03:38:00.379Z,9.17
2022-10-11T03:40:31.223Z,6.50
2022-10-11T03:42:59.725Z,11.17
2022-10-11T03:45:28.685Z,10.37
2022-10-11T03:47:57.252Z,12.30
2022-10-11T03:50:26.072Z,13.40
2022-10-11T03:52:54.689Z,9.97
2022-10-11T03:55:24.937Z,10.93
2022-10-11T03:57:53.519Z,12.43
2022-10-11T04:00:22.192Z,11.07
2022-10-11T04:02:50.739Z,13.17
2022-10-11T04:05:20.023Z,19.43
2022-10-11T04:07:48.662Z,12.33
2022-10-11T04:10:17.232Z,12.83
2022-10-11T04:12:47.436Z,9.57
2022-10-11T04:15:16.741Z,13.63
2022-10-11T04:17:45.269Z,15.80
2022-10-11T04:20:14.250Z,11.17
2022-10-11T04:22:43.203Z,12.17
2022-10-11T04:25:12.185Z,14.53
2022-10-11T04:27:41.309Z,15.33
2022-10-11T04:30:13.669Z,11.63
2022-10-11T04:32:42.261Z,7.83
2022-10-11T04:35:11.041Z,10.17
2022-10-11T04:37:39.900Z,9.83
2022-10-11T04:40:10.495Z,11.60
2022-10-11T04:42:39.387Z,11.60
2022-10-11T04:45:09.573Z,11.53
2022-10-11T04:47:41.443Z,10.57
2022-10-11T04:50:10.405Z,9.00
2022-10-11T04:52:38.953Z,9.77
2022-10-11T04:55:08.943Z,10.10
2022-10-11T04:57:37.681Z,12.17
2022-10-11T05:00:07.189Z,8.97
2022-10-11T05:02:35.994Z,10.43
2022-10-11T05:05:07.073Z,9.77
2022-10-11T05:07:38.891Z,10.07
2022-10-11T05:10:09.066Z,8.93
2022-10-11T05:12:38.241Z,10.00
2022-10-11T05:15:08.219Z,12.27
2022-10-11T05:17:37.507Z,10.60
2022-10-11T05:20:09.373Z,10.67
2022-10-11T05:22:38.059Z,8.37
2022-10-11T05:25:07.502Z,10.53
2022-10-11T05:27:36.496Z,9.77
2022-10-11T05:30:07.599Z,7.90
2022-10-11T05:32:36.372Z,10.60
2022-10-11T05:35:07.333Z,10.60
2022-10-11T05:37:35.912Z,13.27
2022-10-11T05:40:05.469Z,9.67
2022-10-11T05:42:36.666Z,11.20
2022-10-11T05:45:07.999Z,8.57
2022-10-11T05:47:36.570Z,9.73
2022-10-11T05:50:07.806Z,15.33
2022-10-11T05:52:36.359Z,10.00
2022-10-11T05:55:05.625Z,10.87
2022-10-11T05:57:35.447Z,13.60
2022-10-11T06:00:05.441Z,13.93
2022-10-11T06:02:38.778Z,14.03
2022-10-11T06:05:09.542Z,15.13
2022-10-11T06:07:38.673Z,13.07
2022-10-11T06:10:08.583Z,14.93
2022-10-11T06:12:37.687Z,15.87
2022-10-11T06:15:09.149Z,10.70
2022-10-11T06:17:38.443Z,14.47
2022-10-11T06:20:10.760Z,14.83
2022-10-11T06:22:39.845Z,10.53
2022-10-11T06:25:09.773Z,13.10
2022-10-11T06:27:39.405Z,12.47
2022-10-11T06:30:09.770Z,15.47
2022-10-11T06:32:40.455Z,14.53
2022-10-11T06:35:12.641Z,20.77
2022-10-11T06:37:41.556Z,13.57
2022-10-11T06:40:11.115Z,16.53
2022-10-11T06:42:42.666Z,16.30
2022-10-11T06:45:12.047Z,15.80
2022-10-11T06:47:42.601Z,13.47
2022-10-11T06:50:13.864Z,16.80
2022-10-11T06:52:42.763Z,13.27
2022-10-11T06:55:13.490Z,13.90
2022-10-11T06:57:42.994Z,15.83
2022-10-11T07:00:14.294Z,17.53
2022-10-11T07:02:43.559Z,13.93
2022-10-11T07:05:17.108Z,17.13
2022-10-11T07:07:46.718Z,14.43
2022-10-11T07:10:15.847Z,15.10
2022-10-11T07:12:47.373Z,18.97
2022-10-11T07:15:16.500Z,18.13
2022-10-11T07:17:48.980Z,14.63
2022-10-11T07:20:23.115Z,18.47
2022-10-11T07:22:56.025Z,16.93
2022-10-11T07:25:26.738Z,20.03
2022-10-11T07:28:00.878Z,21.43
2022-10-11T07:30:53.391Z,23.60
2022-10-11T07:33:26.732Z,22.07
2022-10-11T07:36:07.510Z,23.50
2022-10-11T07:38:47.039Z,22.47
2022-10-11T07:41:23.335Z,20.37
2022-10-11T07:43:57.043Z,22.63
2022-10-11T07:46:43.627Z,21.50
2022-10-11T07:49:24.284Z,20.40
2022-10-11T07:52:25.109Z,20.73
2022-10-11T07:54:58.358Z,18.33
2022-10-11T07:57:41.494Z,15.90
2022-10-11T08:00:32.254Z,20.30
2022-10-11T08:03:06.932Z,18.00
2022-10-11T08:05:44.008Z,22.63
2022-10-11T08:08:20.348Z,21.20
2022-10-11T08:11:27.391Z,18.00
2022-10-11T08:14:09.787Z,16.87
2022-10-11T08:16:49.683Z,19.17
2022-10-11T08:19:29.901Z,22.70
2022-10-11T08:22:03.599Z,24.43
2022-10-11T08:24:41.707Z,24.17
2022-10-11T08:27:20.613Z,28.83
2022-10-11T08:29:56.517Z,42.73
2022-10-11T08:32:35.413Z,26.03
2022-10-11T08:35:20.073Z,22.60
2022-10-11T08:38:05.124Z,26.90
2022-10-11T08:40:42.726Z,27.23
2022-10-11T08:43:45.545Z,29.17
2022-10-11T08:46:19.108Z,27.63
2022-10-11T08:48:58.495Z,25.53
2022-10-11T08:51:40.354Z,26.40
2022-10-11T08:54:22.604Z,22.57
2022-10-11T08:56:56.462Z,21.43
2022-10-11T08:59:47.051Z,20.87
2022-10-11T09:03:07.573Z,24.77
2022-10-11T09:06:03.959Z,24.23
2022-10-11T09:08:51.724Z,19.63
2022-10-11T09:11:42.617Z,20.07
2022-10-11T09:14:44.711Z,17.90
2022-10-11T09:17:33.794Z,21.00
2022-10-11T09:20:29.193Z,15.37
2022-10-11T09:23:53.934Z,18.90
2022-10-11T09:26:45.910Z,15.37
2022-10-11T09:29:36.795Z,18.50
2022-10-11T09:32:18.626Z,18.63
2022-10-11T09:35:07.615Z,20.47
2022-10-11T09:37:51.481Z,21.20
2022-10-11T09:40:37.417Z,21.87
2022-10-11T09:43:08.052Z,20.07
2022-10-11T09:45:55.322Z,17.07
2022-10-11T09:48:43.846Z,18.07
2022-10-11T09:51:34.177Z,25.37
2022-10-11T09:54:15.558Z,25.37
2022-10-11T09:56:59.458Z,27.07
2022-10-11T09:59:48.488Z,29.17
2022-10-11T10:02:31.805Z,28.17
2022-10-11T10:08:24.728Z,27.53
2022-10-11T10:11:17.302Z,23.23
2022-10-11T10:14:02.513Z,23.57
2022-10-11T10:16:43.512Z,21.97
2022-10-11T10:19:44.767Z,12.97
2022-10-11T10:22:33.384Z,16.53
2022-10-11T10:25:17.680Z,11.13
2022-10-11T10:28:03.715Z,16.07
2022-10-11T10:30:37.874Z,11.23
2022-10-11T10:33:14.350Z,11.50
2022-10-11T10:35:54.559Z,11.07
2022-10-11T10:38:43.174Z,8.60
2022-10-11T10:41:38.908Z,11.60
2022-10-11T10:44:20.979Z,15.30
2022-10-11T10:47:33.401Z,8.77
2022-10-11T10:50:16.945Z,8.60
2022-10-11T10:53:11.457Z,11.00
2022-10-11T10:55:52.630Z,5.53
2022-10-11T10:58:55.473Z,9.83
2022-10-11T11:01:43.645Z,9.87
2022-10-11T11:04:43.724Z,8.43
2022-10-11T11:07:37.876Z,9.83
2022-10-11T11:10:26.394Z,7.43
2022-10-11T11:13:17.539Z,10.93
2022-10-11T11:16:02.080Z,9.53
2022-10-11T11:18:50.137Z,7.93
2022-10-11T11:21:54.996Z,11.90
2022-10-11T11:24:42.619Z,10.03
2022-10-11T11:27:50.085Z,9.07
2022-10-11T11:30:49.180Z,13.63
2022-10-11T11:34:20.081Z,9.27
2022-10-11T11:37:07.214Z,11.67
2022-10-11T11:39:47.755Z,8.87
2022-10-11T11:42:37.994Z,7.07
2022-10-11T11:45:34.506Z,7.70
2022-10-11T11:48:08.997Z,6.10
2022-10-11T11:50:47.983Z,9.30
2022-10-11T11:53:41.736Z,9.87
2022-10-11T11:56:41.398Z,8.43
2022-10-11T11:59:38.739Z,8.30
2022-10-11T12:02:35.917Z,8.07
2022-10-11T12:05:17.475Z,8.23
2022-10-11T12:08:02.369Z,7.00
2022-10-11T12:10:42.801Z,9.87
2022-10-11T12:13:32.703Z,5.73
2022-10-11T12:16:23.037Z,7.43
2022-10-11T12:19:15.763Z,9.77
2022-10-11T12:22:20.052Z,7.93
2022-10-11T12:27:54.039Z,7.50
2022-10-11T12:30:54.430Z,7.33
2022-10-11T12:33:33.494Z,7.90
2022-10-11T12:36:33.683Z,6.03
2022-10-11T12:39:52.068Z,7.20
2022-10-11T12:42:47.612Z,7.00
2022-10-11T12:46:03.148Z,7.23
2022-10-11T12:48:52.095Z,12.87
2022-10-11T12:51:40.068Z,5.77
2022-10-11T12:54:50.764Z,9.83
2022-10-11T12:58:02.639Z,11.93
2022-10-11T13:00:44.513Z,9.10
2022-10-11T13:03:38.367Z,5.27
2022-10-11T13:06:22.330Z,6.80
2022-10-11T13:09:09.479Z,8.67
2022-10-11T13:12:09.934Z,8.60
2022-10-11T13:15:05.640Z,10.33
2022-10-11T13:17:43.129Z,6.83
2022-10-11T13:20:36.277Z,10.70
2022-10-11T13:23:41.295Z,5.53
2022-10-11T13:26:17.399Z,6.77
2022-10-11T13:28:57.044Z,8.10
2022-10-11T13:31:33.934Z,7.63
2022-10-11T13:34:04.623Z,10.20
2022-10-11T13:36:38.882Z,6.47
2022-10-11T13:39:41.766Z,7.70
2022-10-11T13:42:30.855Z,6.23
2022-10-11T13:45:23.134Z,5.67
2022-10-11T13:48:14.014Z,4.73
2022-10-11T13:50:52.834Z,7.67
2022-10-11T13:53:56.798Z,9.03
2022-10-11T13:56:34.180Z,7.10
2022-10-11T13:59:47.980Z,8.63
2022-10-11T14:02:39.015Z,5.70
2022-10-11T14:05:38.855Z,7.70
2022-10-11T14:08:26.435Z,5.53
2022-10-11T14:11:08.191Z,6.60
2022-10-11T14:13:51.050Z,6.97
2022-10-11T14:16:43.724Z,6.27
2022-10-11T14:19:35.633Z,5.80
2022-10-11T14:22:14.227Z,5.90
2022-10-11T14:24:53.414Z,3.83
2022-10-11T14:27:36.973Z,5.77
2022-10-11T14:30:31.488Z,5.27
2022-10-11T14:33:12.388Z,6.97
2022-10-11T14:35:48.889Z,3.80
2022-10-11T14:38:23.637Z,4.23
2022-10-11T14:40:59.296Z,5.03
2022-10-11T14:43:42.396Z,4.73
2022-10-11T14:46:35.737Z,6.93
2022-10-11T14:49:21.837Z,6.97
2022-10-11T14:52:04.171Z,4.93
2022-10-11T14:54:39.860Z,5.60
2022-10-11T14:57:16.322Z,8.13
2022-10-11T14:59:46.356Z,13.43
2022-10-11T15:02:20.572Z,8.17
2022-10-11T15:04:57.827Z,9.47
2022-10-11T15:07:37.901Z,11.17
2022-10-11T15:10:22.280Z,7.20
2022-10-11T15:12:57.998Z,6.97
2022-10-11T15:15:38.752Z,5.40
2022-10-11T15:18:18.498Z,4.70
2022-10-11T15:20:54.856Z,11.90
2022-10-11T15:23:48.091Z,12.53
2022-10-11T15:26:24.457Z,11.33
2022-10-11T15:29:03.712Z,7.50
2022-10-11T15:31:33.768Z,6.73
2022-10-11T15:34:11.535Z,7.20
2022-10-11T15:36:47.560Z,5.93
2022-10-11T15:39:36.374Z,5.47
2022-10-11T15:42:09.156Z,7.40
2022-10-11T15:44:52.210Z,6.70
2022-10-11T15:47:24.198Z,6.57
2022-10-11T15:50:04.490Z,7.20
2022-10-11T15:52:43.704Z,4.53
2022-10-11T15:55:16.597Z,6.60
2022-10-11T15:57:50.193Z,6.83
2022-10-11T16:00:23.831Z,8.07
2022-10-11T16:03:02.095Z,6.97
2022-10-11T16:05:37.801Z,8.43
2022-10-11T16:08:25.904Z,7.60
2022-10-11T16:10:58.895Z,5.10
2022-10-11T16:13:32.981Z,6.73
2022-10-11T16:16:17.047Z,5.10
2022-10-11T16:18:47.163Z,5.50
2022-10-11T16:21:29.476Z,5.47
2022-10-11T16:24:02.899Z,5.47
2022-10-11T16:26:39.197Z,6.90
2022-10-11T16:29:12.366Z,5.13
2022-10-11T16:31:47.236Z,6.17
2022-10-11T16:34:42.789Z,6.77
2022-10-11T16:37:13.311Z,5.43
2022-10-11T16:40:02.657Z,5.73
2022-10-11T16:42:35.902Z,5.30
2022-10-11T16:45:06.945Z,5.53
2022-10-11T16:47:38.055Z,6.50
2022-10-11T16:50:15.266Z,4.87
2022-10-11T16:52:55.744Z,6.03
2022-10-11T16:55:33.103Z,5.80
2022-10-11T16:58:12.415Z,5.03
2022-10-11T17:00:56.311Z,6.47
2022-10-11T17:06:25.482Z,7.50
2022-10-11T17:08:57.695Z,4.63
2022-10-11T17:11:32.421Z,6.60
2022-10-11T17:14:10.020Z,5.63
2022-10-11T17:16:40.097Z,7.10
2022-10-11T17:19:18.949Z,8.67
2022-10-11T17:21:54.633Z,6.73
2022-10-11T17:24:36.043Z,7.77
2022-10-11T17:27:13.929Z,8.13
2022-10-11T17:30:01.954Z,6.63
2022-10-11T17:32:42.077Z,10.17
2022-10-11T17:35:20.086Z,8.70
2022-10-11T17:37:55.460Z,7.40
2022-10-11T17:40:32.429Z,7.77
2022-10-11T17:43:21.713Z,7.90
2022-10-11T17:46:06.644Z,9.03
2022-10-11T17:48:46.797Z,9.97
2022-10-11T17:51:24.374Z,9.97
2022-10-11T17:54:22.993Z,9.13
2022-10-11T17:56:59.693Z,7.40
2022-10-11T17:59:38.651Z,8.47
2022-10-11T18:02:26.207Z,10.03
2022-10-11T18:05:18.393Z,10.23
2022-10-11T18:07:52.344Z,8.97
2022-10-11T18:10:31.999Z,8.77
2022-10-11T18:13:19.654Z,7.87
2022-10-11T18:16:10.775Z,7.03
2022-10-11T18:18:46.220Z,6.83
2022-10-11T18:21:31.362Z,10.03
2022-10-11T18:24:23.382Z,8.80
2022-10-11T18:27:26.850Z,9.10
2022-10-11T18:30:09.154Z,9.27
2022-10-11T18:32:45.689Z,5.87
2022-10-11T18:35:31.723Z,5.23
2022-10-11T18:38:09.111Z,6.90
2022-10-11T18:41:15.764Z,7.20
2022-10-11T18:43:56.593Z,6.93
2022-10-11T18:46:51.539Z,5.93
2022-10-11T18:49:38.655Z,6.97
2022-10-11T18:52:20.357Z,6.33
2022-10-11T18:55:27.182Z,10.33
2022-10-11T18:57:56.074Z,7.40
2022-10-11T19:00:41.617Z,6.20
2022-10-11T19:03:34.128Z,7.47
2022-10-11T19:06:13.381Z,8.17
2022-10-11T19:08:53.370Z,9.13
2022-10-11T19:11:32.281Z,6.30
2022-10-11T19:14:14.108Z,6.40
2022-10-11T19:16:58.858Z,8.30
2022-10-11T19:19:36.698Z,4.37
2022-10-11T19:25:14.159Z,8.20
2022-10-11T19:27:49.106Z,8.10
2022-10-11T19:30:23.246Z,6.90
2022-10-11T19:33:03.519Z,8.83
2022-10-11T19:36:03.235Z,5.67
2022-10-11T19:38:42.590Z,7.60
2022-10-11T19:41:34.560Z,9.60
2022-10-11T19:44:26.105Z,6.03
2022-10-11T19:47:05.142Z,7.33
2022-10-11T19:49:42.741Z,8.63
2022-10-11T19:52:38.570Z,6.90
2022-10-11T19:55:15.895Z,8.03
2022-10-11T19:58:10.554Z,6.60
2022-10-11T20:00:49.245Z,6.70
2022-10-11T20:03:33.514Z,6.73
2022-10-11T20:06:11.428Z,11.07
2022-10-11T20:11:43.723Z,5.70
2022-10-11T20:14:20.449Z,7.20
2022-10-11T20:17:09.501Z,9.17
2022-10-11T20:19:50.275Z,7.13
2022-10-11T20:22:25.004Z,11.13
2022-10-11T20:25:18.037Z,8.40
2022-10-11T20:28:06.930Z,6.07
2022-10-11T20:30:49.480Z,5.70
2022-10-11T20:33:42.195Z,8.90
2022-10-11T20:36:19.607Z,8.13
2022-10-11T20:38:58.131Z,8.40
2022-10-11T20:41:34.603Z,9.30
2022-10-11T20:44:10.218Z,14.40
2022-10-11T20:46:50.265Z,7.93
2022-10-11T20:49:41.202Z,10.23
2022-10-11T20:52:32.067Z,13.30
2022-10-11T20:55:04.776Z,15.70
2022-10-11T20:57:45.840Z,12.93
2022-10-11T21:00:36.783Z,10.70
2022-10-11T21:03:17.843Z,10.03
2022-10-11T21:05:59.324Z,12.60
2022-10-11T21:08:41.458Z,10.30
2022-10-11T21:11:30.221Z,12.43
2022-10-11T21:14:19.277Z,11.17
2022-10-11T21:16:57.648Z,9.97
2022-10-11T21:19:37.994Z,9.93
2022-10-11T21:22:16.168Z,9.47
2022-10-11T21:24:54.541Z,6.87
2022-10-11T21:27:44.187Z,6.43
2022-10-11T21:30:32.141Z,9.63
2022-10-11T21:33:07.627Z,8.27
2022-10-11T21:35:44.306Z,10.10
2022-10-11T21:38:24.529Z,8.53
2022-10-11T21:41:12.449Z,6.40
2022-10-11T21:43:54.485Z,10.40
2022-10-11T21:46:54.147Z,9.10
2022-10-11T21:49:28.900Z,9.87
2022-10-11T21:52:13.803Z,9.03
2022-10-11T21:54:44.998Z,6.23
2022-10-11T21:57:30.104Z,8.47
2022-10-11T22:00:22.499Z,7.97
2022-10-11T22:03:04.995Z,9.03
2022-10-11T22:05:38.323Z,6.70
2022-10-11T22:08:11.148Z,7.53
2022-10-11T22:10:47.257Z,9.33
2022-10-11T22:13:30.590Z,9.50
2022-10-11T22:16:15.800Z,8.93
2022-10-11T22:19:12.525Z,8.63
2022-10-11T22:21:45.553Z,7.00
2022-10-11T22:24:22.680Z,7.47
2022-10-11T22:27:05.577Z,6.20
2022-10-11T22:29:47.731Z,10.10
2022-10-11T22:32:28.147Z,10.63
2022-10-11T22:35:01.725Z,9.00
2022-10-11T22:37:35.934Z,8.53
2022-10-11T22:40:18.170Z,5.30
2022-10-11T22:42:53.262Z,4.90
2022-10-11T22:45:23.681Z,10.73
2022-10-11T22:47:53.517Z,6.23
2022-10-11T22:50:34.921Z,6.90
2022-10-11T22:53:16.691Z,9.40
2022-10-11T22:55:46.117Z,9.13
2022-10-11T22:58:17.360Z,9.43
2022-10-11T23:00:51.000Z,6.10
2022-10-11T23:03:22.994Z,11.03
2022-10-11T23:06:00.026Z,11.73
2022-10-11T23:08:32.834Z,6.17
2022-10-11T23:11:05.878Z,9.17
2022-10-11T23:13:35.461Z,7.80
2022-10-11T23:16:09.368Z,7.67
2022-10-11T23:18:42.750Z,14.60
2022-10-11T23:21:13.407Z,11.87
2022-10-11T23:23:50.068Z,10.00
2022-10-11T23:26:19.534Z,9.07
2022-10-11T23:28:49.120Z,12.07
2022-10-11T23:31:20.405Z,12.23
2022-10-11T23:33:56.767Z,7.93
2022-10-11T23:36:29.927Z,11.30
2022-10-11T23:39:06.172Z,12.60
2022-10-11T23:41:40.659Z,10.37
2022-10-11T23:44:09.857Z,8.30
2022-10-11T23:46:39.410Z,14.50
2022-10-11T23:49:09.036Z,12.13
2022-10-11T23:51:41.227Z,12.20
2022-10-11T23:54:15.917Z,18.67
2022-10-11T23:56:44.709Z,13.07
2022-10-11T23:59:13.649Z,17.67
